Time;durP1;ratioP1;P1;durP2;ratioP2;P2;SDS_P1;SDS_P2;PMS_P1;PMS_P2;Temp;Humidity;BMP_temperature;BMP_pressure;BME280_temperature;BME280_humidity;BME280_pressure;Samples;Min_cycle;Max_cycle;Signal;HPM_P1;HPM_P2
2024/01/05 00:01:36;;;;;;;11.20;7.30;;;;;;;-2.10;84.18;98890.08;103796;1259;139927;-71
2024/01/05 00:04:02;;;;;;;11.10;8.00;;;;;;;-2.09;84.51;98895.19;102357;1263;1003590;-70
2024/01/05 00:06:30;;;;;;;9.70;7.00;;;;;;;-2.05;84.76;98900.61;103040;1261;108861;-71
2024/01/05 00:08:57;;;;;;;9.40;7.10;;;;;;;-2.00;84.75;98900.42;103153;1260;138270;-70
2024/01/05 00:11:24;;;;;;;10.70;6.90;;;;;;;-1.97;84.89;98910.48;103096;1260;113056;-70
2024/01/05 00:13:51;;;;;;;11.30;8.40;;;;;;;-1.92;84.95;98917.79;102921;1257;140810;-69
2024/01/05 00:16:22;;;;;;;10.80;7.50;;;;;;;-1.87;84.95;98924.23;103061;1259;98418;-70
2024/01/05 00:18:49;;;;;;;9.10;6.90;;;;;;;-1.84;84.54;98930.86;103256;1257;108376;-71
2024/01/05 00:21:24;;;;;;;9.90;6.80;;;;;;;-1.84;84.56;98930.19;102947;1263;138243;-70
2024/01/05 00:23:52;;;;;;;8.30;6.60;;;;;;;-1.85;84.11;98939.20;103035;1259;112114;-71
2024/01/05 00:26:20;;;;;;;7.70;5.80;;;;;;;-1.86;84.31;98940.24;103353;1259;138238;-71
2024/01/05 00:28:48;;;;;;;6.10;4.70;;;;;;;-1.85;84.02;98943.30;103055;1263;97909;-70
2024/01/05 00:31:16;;;;;;;5.80;4.50;;;;;;;-1.87;83.59;98951.15;103446;1259;138188;-70
2024/01/05 00:33:45;;;;;;;7.00;4.20;;;;;;;-1.88;83.17;98953.19;103051;1260;97845;-71
2024/01/05 00:36:13;;;;;;;7.30;5.10;;;;;;;-1.87;83.05;98963.58;103050;1259;111980;-70
2024/01/05 00:38:46;;;;;;;7.60;4.70;;;;;;;-1.87;83.08;98966.48;103271;1262;137678;-70
2024/01/05 00:41:15;;;;;;;6.70;4.90;;;;;;;-1.83;83.02;98973.27;103034;1262;98014;-70
2024/01/05 00:43:42;;;;;;;5.90;4.90;;;;;;;-1.85;82.87;98976.19;103023;1259;138076;-69
2024/01/05 00:46:09;;;;;;;8.60;5.20;;;;;;;-1.87;82.65;98987.09;102189;1258;1002928;-71
2024/01/05 00:48:35;;;;;;;7.80;5.60;;;;;;;-1.87;83.24;98993.91;103055;1257;112114;-69
2024/01/05 00:51:03;;;;;;;7.50;5.60;;;;;;;-1.84;83.62;98994.06;103079;1259;139645;-70
2024/01/05 00:53:30;;;;;;;9.30;5.30;;;;;;;-1.81;84.01;98993.20;103353;1259;97864;-71
2024/01/05 00:55:57;;;;;;;7.30;5.70;;;;;;;-1.80;83.91;98996.96;102952;1262;138453;-71
2024/01/05 00:58:23;;;;;;;8.00;5.70;;;;;;;-1.78;84.03;99002.42;103002;1260;97909;-70
2024/01/05 01:00:50;;;;;;;8.30;6.10;;;;;;;-1.75;84.19;99000.20;103902;1258;111189;-71
2024/01/05 01:03:17;;;;;;;8.60;5.60;;;;;;;-1.78;83.69;99001.23;102935;1259;138387;-71
2024/01/05 01:05:45;;;;;;;6.50;4.60;;;;;;;-1.77;83.90;99004.13;103196;1262;97683;-71
2024/01/05 01:08:12;;;;;;;8.00;4.80;;;;;;;-1.75;84.19;99008.38;103280;1258;139618;-71
2024/01/05 01:10:39;;;;;;;6.60;4.50;;;;;;;-1.70;84.36;99014.31;103077;1260;99306;-71
2024/01/05 01:13:07;;;;;;;6.40;4.10;;;;;;;-1.67;84.31;99019.23;103071;1260;111232;-69
2024/01/05 01:15:34;;;;;;;5.90;4.50;;;;;;;-1.60;84.59;99019.41;102989;1259;108999;-71
2024/01/05 01:18:02;;;;;;;4.90;4.30;;;;;;;-1.55;84.33;99024.67;103098;1259;99717;-70
2024/01/05 01:20:29;;;;;;;6.90;5.40;;;;;;;-1.50;84.52;99026.69;103132;1259;137491;-70
2024/01/05 01:22:56;;;;;;;8.80;5.20;;;;;;;-1.44;84.77;99026.16;103417;1260;96442;-70
2024/01/05 01:25:23;;;;;;;6.20;4.60;;;;;;;-1.45;84.24;99026.84;103052;1263;137554;-71
2024/01/05 01:27:50;;;;;;;6.70;4.50;;;;;;;-1.52;83.42;99027.89;103100;1262;107714;-70
2024/01/05 01:30:17;;;;;;;6.60;4.80;;;;;;;-1.61;83.49;99032.36;102938;1262;98478;-70
2024/01/05 01:32:44;;;;;;;6.40;4.50;;;;;;;-1.68;83.47;99034.92;103474;1259;137367;-71
2024/01/05 01:35:11;;;;;;;6.40;4.40;;;;;;;-1.70;83.79;99039.20;103357;1259;97921;-71
2024/01/05 01:37:38;;;;;;;7.30;4.40;;;;;;;-1.73;83.25;99038.19;103540;1258;138319;-71
2024/01/05 01:40:06;;;;;;;6.50;4.30;;;;;;;-1.76;83.27;99039.73;102948;1261;107203;-72
2024/01/05 01:42:33;;;;;;;4.80;4.20;;;;;;;-1.79;82.76;99043.83;103142;1259;98380;-70
2024/01/05 01:45:00;;;;;;;6.60;4.00;;;;;;;-1.82;83.01;99052.33;103198;1259;138178;-72
2024/01/05 01:47:28;;;;;;;4.80;3.80;;;;;;;-1.80;83.08;99058.30;103194;1259;98755;-72
2024/01/05 01:49:56;;;;;;;5.40;3.80;;;;;;;-1.80;83.29;99060.51;103074;1263;138561;-69
2024/01/05 01:52:24;;;;;;;4.60;3.60;;;;;;;-1.78;83.36;99059.50;103071;1259;107648;-70
2024/01/05 01:54:51;;;;;;;4.50;3.50;;;;;;;-1.76;83.45;99059.84;103112;1262;97831;-71
2024/01/05 01:57:18;;;;;;;5.00;3.60;;;;;;;-1.70;83.44;99056.23;102980;1263;138093;-71
2024/01/05 01:59:46;;;;;;;7.60;3.80;;;;;;;-1.63;83.52;99055.54;103112;1259;97825;-70
2024/01/05 02:02:13;;;;;;;6.30;4.20;;;;;;;-1.58;83.18;99050.60;102978;1259;137474;-70
2024/01/05 02:04:40;;;;;;;5.00;4.00;;;;;;;-1.58;82.88;99052.46;103078;1257;107672;-70
2024/01/05 02:07:09;;;;;;;5.00;3.80;;;;;;;-1.58;82.70;99054.68;103060;1257;97951;-70
2024/01/05 02:09:36;;;;;;;5.00;3.40;;;;;;;-1.57;82.61;99054.85;103181;1259;107192;-70
2024/01/05 02:12:03;;;;;;;6.20;4.00;;;;;;;-1.60;82.30;99050.60;103645;1262;97732;-70
2024/01/05 02:14:30;;;;;;;7.30;4.10;;;;;;;-1.65;82.19;99057.25;103657;1261;137396;-70
2024/01/05 02:16:57;;;;;;;6.10;4.00;;;;;;;-1.70;82.07;99063.73;103075;1259;108188;-70
2024/01/05 02:19:24;;;;;;;5.50;3.70;;;;;;;-1.72;81.94;99065.79;102781;1259;138594;-71
2024/01/05 02:21:56;;;;;;;4.80;3.40;;;;;;;-1.75;81.80;99068.87;104023;1258;107192;-71
2024/01/05 02:24:23;;;;;;;5.70;4.10;;;;;;;-1.75;81.79;99078.58;103263;1259;97630;-71
2024/01/05 02:26:50;;;;;;;5.30;3.50;;;;;;;-1.72;81.71;99073.96;103456;1262;138180;-71
2024/01/05 02:29:21;;;;;;;4.40;3.30;;;;;;;-1.71;81.57;99084.36;102972;1262;107454;-70
2024/01/05 02:31:49;;;;;;;5.70;3.50;;;;;;;-1.67;81.20;99082.65;102785;1258;1002371;-71
2024/01/05 02:34:17;;;;;;;4.70;3.70;;;;;;;-1.67;80.81;99087.41;103081;1257;107774;-71
2024/01/05 02:36:44;;;;;;;6.00;3.50;;;;;;;-1.66;80.73;99085.36;103020;1259;97927;-70
2024/01/05 02:39:13;;;;;;;4.20;3.60;;;;;;;-1.65;80.17;99095.23;102870;1257;138000;-72
2024/01/05 02:41:40;;;;;;;4.10;3.30;;;;;;;-1.65;80.05;99098.99;103301;1259;107736;-70
2024/01/05 02:44:07;;;;;;;4.60;3.60;;;;;;;-1.65;79.65;99103.08;102953;1259;137477;-70
2024/01/05 02:46:35;;;;;;;4.60;3.40;;;;;;;-1.66;79.26;99106.49;103069;1263;107889;-70
2024/01/05 02:49:02;;;;;;;4.20;3.40;;;;;;;-1.67;78.91;99107.00;103178;1257;98839;-70
2024/01/05 02:51:29;;;;;;;4.90;3.20;;;;;;;-1.69;78.83;99104.80;102960;1263;137966;-69
2024/01/05 02:53:56;;;;;;;4.80;3.20;;;;;;;-1.71;78.88;99107.88;102979;1259;108729;-69
2024/01/05 02:56:24;;;;;;;4.40;3.10;;;;;;;-1.73;78.79;99107.88;103190;1259;138791;-70
2024/01/05 02:58:51;;;;;;;4.70;2.80;;;;;;;-1.72;78.53;99108.55;103554;1261;107782;-70
2024/01/05 03:01:18;;;;;;;4.30;3.00;;;;;;;-1.74;78.40;99110.09;104061;1259;138638;-70
2024/01/05 03:03:46;;;;;;;3.70;3.00;;;;;;;-1.77;77.86;99108.05;103925;1257;109980;-70
2024/01/05 03:06:18;;;;;;;4.20;3.20;;;;;;;-1.76;78.18;99121.69;103075;1261;106922;-71
2024/01/05 03:08:46;;;;;;;5.60;3.30;;;;;;;-1.74;78.07;99122.88;102881;1263;138228;-70
2024/01/05 03:11:13;;;;;;;4.00;2.70;;;;;;;-1.73;78.10;99127.81;102938;1259;108442;-71
2024/01/05 03:13:41;;;;;;;3.80;2.60;;;;;;;-1.72;77.90;99133.10;102900;1259;138660;-72
2024/01/05 03:16:08;;;;;;;5.20;2.80;;;;;;;-1.70;77.55;99131.39;103072;1259;111828;-70
2024/01/05 03:18:35;;;;;;;4.30;2.70;;;;;;;-1.71;77.28;99127.30;103234;1257;107105;-70
2024/01/05 03:21:02;;;;;;;3.40;2.70;;;;;;;-1.72;76.87;99130.71;102956;1259;137572;-71
2024/01/05 03:23:29;;;;;;;3.90;3.00;;;;;;;-1.75;76.98;99131.58;103222;1259;107530;-71
2024/01/05 03:25:57;;;;;;;6.10;3.00;;;;;;;-1.77;76.95;99136.70;102983;1257;138031;-71
2024/01/05 03:28:24;;;;;;;4.00;2.80;;;;;;;-1.79;76.82;99142.65;103084;1257;111186;-71
2024/01/05 03:30:51;;;;;;;3.80;3.10;;;;;;;-1.83;75.79;99145.87;102970;1259;109394;-71
2024/01/05 03:33:21;;;;;;;3.80;2.90;;;;;;;-1.89;75.97;99155.42;103568;1258;139190;-69
2024/01/05 03:35:48;;;;;;;3.60;2.80;;;;;;;-1.92;76.50;99154.23;103058;1258;107661;-70
2024/01/05 03:38:15;;;;;;;4.80;2.80;;;;;;;-1.93;76.41;99161.55;103008;1259;137728;-71
2024/01/05 03:40:42;;;;;;;4.20;2.60;;;;;;;-1.93;76.27;99163.44;102920;1262;111259;-72
2024/01/05 03:43:09;;;;;;;2.90;2.20;;;;;;;-1.91;76.32;99168.38;102987;1263;109610;-70
2024/01/05 03:45:36;;;;;;;2.70;1.80;;;;;;;-1.91;75.44;99168.02;102265;1259;1004953;-70
2024/01/05 03:48:03;;;;;;;1.90;1.40;;;;;;;-1.94;74.44;99169.39;102973;1263;107760;-70
2024/01/05 03:50:31;;;;;;;2.70;1.50;;;;;;;-1.95;74.18;99174.85;102959;1259;138229;-70
2024/01/05 03:52:57;;;;;;;2.20;1.70;;;;;;;-1.92;73.99;99172.12;102867;1264;111215;-70
2024/01/05 03:55:24;;;;;;;2.10;1.20;;;;;;;-1.88;73.86;99177.40;102893;1259;138349;-70
2024/01/05 03:57:51;;;;;;;2.20;1.60;;;;;;;-1.84;73.96;99184.55;103038;1262;97687;-69
2024/01/05 04:00:21;;;;;;;2.10;1.50;;;;;;;-1.84;73.74;99178.42;103005;1259;108393;-70
2024/01/05 04:02:48;;;;;;;2.30;1.60;;;;;;;-1.80;73.68;99182.87;103000;1262;137594;-71
2024/01/05 04:05:15;;;;;;;3.50;1.70;;;;;;;-1.76;73.43;99192.75;103016;1257;111142;-70
2024/01/05 04:07:42;;;;;;;2.10;1.70;;;;;;;-1.74;73.29;99194.27;102880;1259;137699;-70
2024/01/05 04:10:10;;;;;;;2.90;1.90;;;;;;;-1.75;73.27;99191.55;102977;1257;97849;-70
2024/01/05 04:12:37;;;;;;;2.50;1.70;;;;;;;-1.77;73.02;99197.52;102917;1260;107348;-70
2024/01/05 04:15:06;;;;;;;3.20;1.90;;;;;;;-1.77;73.17;99202.64;102023;1259;1002906;-69
2024/01/05 04:17:32;;;;;;;2.40;1.60;;;;;;;-1.80;72.85;99208.75;103413;1259;110616;-70
2024/01/05 04:19:59;;;;;;;2.50;1.90;;;;;;;-1.82;73.05;99213.34;102737;1263;137677;-70
2024/01/05 04:22:30;;;;;;;2.80;2.20;;;;;;;-1.83;73.13;99219.14;103537;1259;97803;-70
2024/01/05 04:24:58;;;;;;;3.50;2.00;;;;;;;-1.85;73.17;99220.67;102195;1263;1002399;-70
2024/01/05 04:27:24;;;;;;;3.70;1.90;;;;;;;-1.87;72.83;99226.29;103215;1259;137884;-70
2024/01/05 04:29:51;;;;;;;2.20;1.60;;;;;;;-1.88;72.84;99231.40;102866;1259;111343;-70
2024/01/05 04:32:18;;;;;;;2.00;1.80;;;;;;;-1.89;73.20;99234.64;102838;1259;137747;-71
2024/01/05 04:34:45;;;;;;;2.70;2.10;;;;;;;-1.90;73.53;99243.67;102927;1259;99475;-71
2024/01/05 04:37:12;;;;;;;2.30;1.80;;;;;;;-1.90;73.40;99241.63;101994;1259;1002862;-70
2024/01/05 04:39:39;;;;;;;3.00;1.90;;;;;;;-1.89;73.59;99245.38;102958;1259;97821;-71
2024/01/05 04:42:07;;;;;;;2.40;1.60;;;;;;;-1.87;73.71;99244.02;102911;1259;110704;-71
2024/01/05 04:44:34;;;;;;;3.50;1.90;;;;;;;-1.85;73.72;99249.30;103083;1259;138618;-70
2024/01/05 04:47:00;;;;;;;2.30;1.90;;;;;;;-1.82;73.79;99250.66;102869;1259;97851;-70
2024/01/05 04:49:28;;;;;;;4.60;1.90;;;;;;;-1.79;73.58;99254.77;102789;1260;139650;-70
2024/01/05 04:51:54;;;;;;;5.40;1.70;;;;;;;-1.76;73.78;99250.52;102832;1259;97888;-70
2024/01/05 04:54:21;;;;;;;2.50;1.80;;;;;;;-1.70;73.75;99254.27;102855;1259;111003;-70
2024/01/05 04:56:48;;;;;;;2.40;1.90;;;;;;;-1.64;73.72;99252.90;102798;1259;137823;-70
2024/01/05 04:59:15;;;;;;;3.10;2.00;;;;;;;-1.57;73.71;99252.58;102945;1259;97789;-71
2024/01/05 05:01:43;;;;;;;2.10;1.60;;;;;;;-1.54;73.62;99250.35;102759;1258;137576;-70
2024/01/05 05:04:13;;;;;;;4.20;2.10;;;;;;;-1.54;73.26;99246.95;102957;1259;97816;-70
2024/01/05 05:06:40;;;;;;;2.90;1.80;;;;;;;-1.55;73.51;99249.84;102972;1259;111028;-69
2024/01/05 05:09:08;;;;;;;3.80;2.10;;;;;;;-1.54;73.59;99252.58;102801;1259;137622;-70
2024/01/05 05:11:35;;;;;;;2.70;1.90;;;;;;;-1.56;73.23;99253.60;103024;1263;97802;-71
2024/01/05 05:14:02;;;;;;;4.40;2.20;;;;;;;-1.61;73.56;99257.17;102825;1263;138366;-70
2024/01/05 05:16:29;;;;;;;3.00;2.20;;;;;;;-1.60;73.59;99265.36;102944;1259;97832;-69
2024/01/05 05:18:56;;;;;;;5.20;2.00;;;;;;;-1.60;73.51;99266.05;102898;1259;109788;-70
2024/01/05 05:21:23;;;;;;;3.80;1.90;;;;;;;-1.64;73.53;99270.96;102010;1259;1003284;-71
2024/01/05 05:23:50;;;;;;;4.60;1.90;;;;;;;-1.68;73.69;99270.11;102969;1259;98354;-70
2024/01/05 05:26:17;;;;;;;3.10;2.10;;;;;;;-1.70;73.47;99276.94;102799;1263;138356;-70
2024/01/05 05:28:44;;;;;;;3.70;2.30;;;;;;;-1.71;73.97;99282.04;102893;1263;97799;-70
2024/01/05 05:31:11;;;;;;;2.80;2.00;;;;;;;-1.72;74.07;99286.64;102215;1263;1003822;-70
2024/01/05 05:33:38;;;;;;;3.30;1.80;;;;;;;-1.71;74.26;99293.29;102994;1259;108502;-70
2024/01/05 05:36:06;;;;;;;4.50;2.30;;;;;;;-1.72;74.21;99292.09;102969;1259;97701;-71
2024/01/05 05:38:33;;;;;;;2.90;1.90;;;;;;;-1.70;74.47;99289.88;103670;1259;138831;-70
2024/01/05 05:40:59;;;;;;;2.60;1.50;;;;;;;-1.63;74.54;99295.00;102964;1263;97908;-70
2024/01/05 05:43:26;;;;;;;3.90;2.00;;;;;;;-1.57;74.51;99292.29;102777;1259;138198;-71
2024/01/05 05:45:53;;;;;;;3.60;1.80;;;;;;;-1.48;74.48;99290.41;102991;1259;108244;-71
2024/01/05 05:48:20;;;;;;;3.90;2.00;;;;;;;-1.41;74.23;99287.88;102949;1259;98400;-71
2024/01/05 05:50:47;;;;;;;4.00;2.10;;;;;;;-1.37;74.26;99294.70;102437;1259;1002789;-71
2024/01/05 05:53:14;;;;;;;4.10;2.00;;;;;;;-1.34;74.11;99291.63;102885;1259;97806;-70
2024/01/05 05:55:41;;;;;;;3.90;2.00;;;;;;;-1.33;73.83;99297.25;102837;1259;138645;-71
2024/01/05 05:58:08;;;;;;;3.20;2.10;;;;;;;-1.36;73.05;99302.36;102156;1260;1002784;-71
2024/01/05 06:00:35;;;;;;;3.30;1.90;;;;;;;-1.39;72.54;99307.66;102944;1258;98976;-71
2024/01/05 06:03:05;;;;;;;3.70;2.30;;;;;;;-1.43;72.34;99320.27;102751;1259;138903;-70
2024/01/05 06:05:36;;;;;;;3.70;2.50;;;;;;;-1.45;72.79;99320.92;102875;1263;97689;-71
2024/01/05 06:08:03;;;;;;;3.20;2.00;;;;;;;-1.48;72.22;99324.85;102751;1259;137575;-71
2024/01/05 06:10:30;;;;;;;4.60;2.60;;;;;;;-1.52;72.17;99330.48;102357;1259;1003808;-72
2024/01/05 06:12:57;;;;;;;5.20;2.70;;;;;;;-1.55;72.60;99336.80;102952;1259;98291;-70
2024/01/05 06:15:24;;;;;;;5.00;2.60;;;;;;;-1.57;72.73;99340.20;102852;1259;137786;-70
2024/01/05 06:17:51;;;;;;;4.40;2.90;;;;;;;-1.57;72.84;99339.52;102971;1259;97836;-71
2024/01/05 06:20:18;;;;;;;7.90;3.20;;;;;;;-1.58;72.88;99344.80;102822;1259;137819;-71
2024/01/05 06:22:45;;;;;;;4.80;3.00;;;;;;;-1.58;73.33;99346.50;102927;1259;108246;-71
2024/01/05 06:25:12;;;;;;;4.50;2.80;;;;;;;-1.58;73.28;99351.44;102827;1263;97843;-71
2024/01/05 06:27:39;;;;;;;6.90;3.10;;;;;;;-1.57;73.43;99350.94;102817;1259;106423;-70
2024/01/05 06:30:08;;;;;;;7.40;3.10;;;;;;;-1.55;73.50;99351.27;102882;1259;97830;-71
2024/01/05 06:32:35;;;;;;;5.80;3.50;;;;;;;-1.53;73.80;99347.70;102949;1259;138344;-70
2024/01/05 06:35:03;;;;;;;3.60;2.60;;;;;;;-1.52;73.16;99351.45;102904;1259;108427;-71
2024/01/05 06:37:30;;;;;;;4.50;2.60;;;;;;;-1.54;72.67;99356.73;102745;1259;139219;-71
2024/01/05 06:39:57;;;;;;;5.10;2.60;;;;;;;-1.54;72.77;99362.02;103063;1259;107689;-71
2024/01/05 06:42:24;;;;;;;4.60;2.80;;;;;;;-1.52;72.73;99364.23;103241;1259;98479;-71
2024/01/05 06:44:51;;;;;;;4.10;2.60;;;;;;;-1.51;72.82;99372.92;103145;1259;137784;-71
2024/01/05 06:47:18;;;;;;;5.90;3.00;;;;;;;-1.52;72.40;99371.23;103955;1260;108824;-71
2024/01/05 06:49:45;;;;;;;3.20;2.70;;;;;;;-1.52;72.47;99377.02;103535;1259;138353;-72
2024/01/05 06:52:12;;;;;;;3.80;2.60;;;;;;;-1.49;72.79;99381.45;103211;1259;107167;-71
2024/01/05 06:54:38;;;;;;;4.90;3.10;;;;;;;-1.48;72.39;99378.21;103755;1259;97677;-71
2024/01/05 06:57:07;;;;;;;3.60;2.60;;;;;;;-1.49;72.69;99380.95;103041;1259;1002554;-71
2024/01/05 06:59:36;;;;;;;3.60;2.70;;;;;;;-1.50;72.74;99379.58;102573;1259;1003183;-70
2024/01/05 07:02:03;;;;;;;4.30;3.00;;;;;;;-1.46;72.97;99386.91;102804;1259;137721;-72
2024/01/05 07:04:30;;;;;;;4.70;3.10;;;;;;;-1.45;72.34;99388.10;102778;1259;1003714;-71
2024/01/05 07:06:57;;;;;;;5.30;3.00;;;;;;;-1.45;72.37;99395.77;103082;1259;97826;-71
2024/01/05 07:09:24;;;;;;;3.80;3.00;;;;;;;-1.45;72.17;99392.36;102123;1259;1002925;-72
2024/01/05 07:11:52;;;;;;;4.80;3.10;;;;;;;-1.45;72.25;99397.99;102883;1259;107406;-71
2024/01/05 07:14:20;;;;;;;3.10;2.40;;;;;;;-1.41;72.75;99400.58;103118;1259;139030;-71
2024/01/05 07:16:47;;;;;;;4.80;2.30;;;;;;;-1.39;71.78;99398.55;102942;1263;108235;-71
2024/01/05 07:19:14;;;;;;;3.00;2.20;;;;;;;-1.38;71.65;99394.61;102834;1263;97713;-71
2024/01/05 07:21:43;;;;;;;4.90;2.50;;;;;;;-1.32;71.89;99393.42;103042;1258;111971;-71
2024/01/05 07:24:13;;;;;;;4.40;2.60;;;;;;;-1.26;71.63;99391.23;103004;1259;107009;-71
2024/01/05 07:26:41;;;;;;;5.10;2.60;;;;;;;-1.24;71.46;99392.09;102716;1264;138186;-71
2024/01/05 07:29:07;;;;;;;4.20;2.80;;;;;;;-1.23;71.02;99386.13;103301;1260;107428;-71
2024/01/05 07:31:34;;;;;;;4.70;3.00;;;;;;;-1.23;70.87;99381.02;102835;1259;137990;-72
2024/01/05 07:34:02;;;;;;;4.20;2.80;;;;;;;-1.24;70.13;99386.46;103077;1263;112199;-71
2024/01/05 07:36:29;;;;;;;4.30;3.10;;;;;;;-1.26;70.62;99387.48;103984;1259;108670;-72
2024/01/05 07:38:58;;;;;;;5.20;3.20;;;;;;;-1.27;70.60;99387.30;102128;1261;1003856;-71
2024/01/05 07:41:26;;;;;;;5.20;2.80;;;;;;;-1.25;70.60;99392.42;102961;1263;108580;-71
2024/01/05 07:43:53;;;;;;;4.20;2.70;;;;;;;-1.25;70.84;99394.83;103407;1259;139070;-71
2024/01/05 07:46:22;;;;;;;4.00;2.80;;;;;;;-1.26;70.75;99402.33;102890;1259;112171;-71
2024/01/05 07:48:49;;;;;;;3.10;2.50;;;;;;;-1.27;70.92;99404.70;102489;1263;1003477;-71
2024/01/05 07:51:19;;;;;;;4.10;2.80;;;;;;;-1.27;71.06;99404.02;103081;1259;138084;-70
2024/01/05 07:53:48;;;;;;;4.00;2.70;;;;;;;-1.22;71.14;99405.58;102980;1259;108392;-70
2024/01/05 07:56:17;;;;;;;6.20;3.40;;;;;;;-1.21;71.33;99402.50;103731;1258;137701;-73
2024/01/05 07:58:44;;;;;;;6.00;2.90;;;;;;;-1.19;71.18;99405.91;103072;1259;111760;-72
2024/01/05 08:01:16;;;;;;;4.90;3.00;;;;;;;-1.17;71.17;99401.48;103031;1263;106201;-71
2024/01/05 08:03:44;;;;;;;4.40;2.60;;;;;;;-1.18;71.21;99403.86;104195;1259;96258;-72
2024/01/05 08:06:16;;;;;;;4.30;2.50;;;;;;;-1.17;71.30;99408.13;103242;1264;107539;-68
2024/01/05 08:08:44;;;;;;;2.80;2.00;;;;;;;-1.16;71.57;99410.17;103023;1259;138219;-72
2024/01/05 08:11:11;;;;;;;4.00;2.20;;;;;;;-1.09;71.39;99415.29;102376;1259;1002640;-70
2024/01/05 08:13:38;;;;;;;6.10;2.60;;;;;;;-1.04;71.22;99419.07;102205;1259;1003090;-72
2024/01/05 08:16:06;;;;;;;4.00;2.50;;;;;;;-0.96;71.57;99418.73;102884;1259;98111;-72
2024/01/05 08:18:33;;;;;;;7.40;2.90;;;;;;;-0.87;71.42;99419.09;102957;1259;109537;-69
2024/01/05 08:21:00;;;;;;;5.00;2.80;;;;;;;-0.82;71.25;99418.91;102820;1259;137822;-69
2024/01/05 08:23:27;;;;;;;6.00;2.80;;;;;;;-0.81;70.61;99417.89;102965;1263;113789;-69
2024/01/05 08:25:54;;;;;;;5.20;2.80;;;;;;;-0.81;70.65;99428.81;102934;1259;138427;-70
2024/01/05 08:28:21;;;;;;;4.40;2.80;;;;;;;-0.82;70.50;99430.52;102152;1262;1003109;-70
2024/01/05 08:30:48;;;;;;;4.50;3.00;;;;;;;-0.83;70.54;99437.34;102826;1263;108513;-69
2024/01/05 08:33:15;;;;;;;4.80;3.20;;;;;;;-0.86;70.52;99437.86;102032;1259;1003159;-71
2024/01/05 08:35:44;;;;;;;6.10;3.00;;;;;;;-0.87;70.75;99439.40;103257;1259;110445;-71
2024/01/05 08:38:10;;;;;;;5.00;3.00;;;;;;;-0.90;70.77;99432.23;103573;1259;139550;-72
2024/01/05 08:40:38;;;;;;;7.60;3.50;;;;;;;-0.90;70.75;99433.92;103071;1259;97701;-71
2024/01/05 08:43:05;;;;;;;4.70;3.20;;;;;;;-0.91;70.31;99431.02;103981;1259;108647;-70
2024/01/05 08:45:34;;;;;;;5.60;3.60;;;;;;;-0.93;70.70;99437.15;102734;1259;137605;-73
2024/01/05 08:48:01;;;;;;;4.70;3.20;;;;;;;-0.91;70.68;99440.56;103133;1263;110662;-71
2024/01/05 08:50:28;;;;;;;4.50;3.00;;;;;;;-0.90;70.50;99445.34;102779;1259;138142;-71
2024/01/05 08:52:55;;;;;;;3.90;2.60;;;;;;;-0.92;70.06;99449.78;102894;1259;97846;-70
2024/01/05 08:55:22;;;;;;;4.30;2.70;;;;;;;-0.95;70.00;99453.19;102987;1259;137689;-70
2024/01/05 08:57:49;;;;;;;4.60;2.80;;;;;;;-0.95;69.98;99461.21;103935;1259;97784;-70
2024/01/05 09:00:19;;;;;;;4.30;2.90;;;;;;;-0.94;70.38;99462.91;102989;1259;110277;-72
2024/01/05 09:02:46;;;;;;;4.80;3.50;;;;;;;-0.93;70.29;99467.70;104179;1259;138399;-72
2024/01/05 09:05:13;;;;;;;5.40;3.40;;;;;;;-0.93;70.58;99468.21;103196;1259;97840;-71
2024/01/05 09:07:40;;;;;;;3.80;2.80;;;;;;;-0.93;70.61;99466.33;103236;1263;138315;-70
2024/01/05 09:10:09;;;;;;;5.00;3.00;;;;;;;-0.94;70.86;99466.16;102901;1263;97921;-71
2024/01/05 09:12:37;;;;;;;5.10;2.60;;;;;;;-0.92;70.90;99477.42;103163;1259;110408;-70
2024/01/05 09:15:05;;;;;;;5.10;2.50;;;;;;;-0.90;71.29;99478.48;102916;1263;138234;-72
2024/01/05 09:17:33;;;;;;;3.30;2.70;;;;;;;-0.83;71.43;99481.38;103310;1263;98153;-71
2024/01/05 09:20:00;;;;;;;4.60;3.00;;;;;;;-0.79;71.45;99479.50;102788;1259;138352;-71
2024/01/05 09:22:27;;;;;;;4.10;2.90;;;;;;;-0.76;71.53;99479.33;103791;1259;95776;-72
2024/01/05 09:24:54;;;;;;;7.20;3.30;;;;;;;-0.73;71.53;99482.58;103583;1259;111210;-71
2024/01/05 09:27:21;;;;;;;4.20;3.00;;;;;;;-0.69;71.54;99484.14;103072;1263;138725;-71
2024/01/05 09:29:48;;;;;;;5.90;3.30;;;;;;;-0.65;71.40;99486.35;104012;1259;96160;-71
2024/01/05 09:32:15;;;;;;;5.70;3.30;;;;;;;-0.66;71.44;99485.50;103879;1259;138471;-71
2024/01/05 09:34:43;;;;;;;7.70;3.60;;;;;;;-0.68;71.58;99486.69;102980;1259;97893;-76
2024/01/05 09:37:10;;;;;;;5.20;3.20;;;;;;;-0.64;71.30;99488.05;102238;1262;1003686;-75
2024/01/05 09:39:37;;;;;;;5.60;3.00;;;;;;;-0.66;71.16;99489.09;102726;1264;137796;-77
2024/01/05 09:42:05;;;;;;;5.80;2.60;;;;;;;-0.70;70.76;99488.05;103809;1259;95673;-76
2024/01/05 09:44:34;;;;;;;6.20;3.10;;;;;;;-0.72;70.73;99485.84;102921;1263;137371;-74
2024/01/05 09:47:02;;;;;;;8.40;4.50;;;;;;;-0.72;70.96;99476.10;102251;1263;1016022;-74
2024/01/05 09:49:30;;;;;;;13.80;8.30;;;;;;;-0.69;71.06;99469.11;102919;1259;138418;-74
2024/01/05 09:51:58;;;;;;;5.70;3.70;;;;;;;-0.64;71.39;99466.55;102885;1259;107343;-74
2024/01/05 09:54:25;;;;;;;4.20;2.90;;;;;;;-0.59;70.84;99461.75;102980;1263;97816;-74
2024/01/05 09:56:52;;;;;;;6.60;2.80;;;;;;;-0.54;70.21;99459.38;102797;1259;137866;-73
2024/01/05 09:59:20;;;;;;;7.80;2.70;;;;;;;-0.49;69.72;99463.48;103879;1262;95729;-74
2024/01/05 10:01:50;;;;;;;3.40;2.00;;;;;;;-0.45;69.03;99468.25;103249;1259;137553;-75
2024/01/05 10:04:19;;;;;;;3.50;2.20;;;;;;;-0.42;68.65;99475.75;103202;1259;107120;-74
2024/01/05 10:06:46;;;;;;;3.50;1.90;;;;;;;-0.37;68.84;99477.13;102844;1259;97898;-76
2024/01/05 10:09:13;;;;;;;2.70;1.80;;;;;;;-0.30;68.34;99472.01;102810;1261;137405;-76
2024/01/05 10:11:42;;;;;;;4.30;1.90;;;;;;;-0.23;68.65;99474.21;102885;1259;97804;-73
2024/01/05 10:14:11;;;;;;;2.50;1.90;;;;;;;-0.15;68.72;99479.00;103050;1259;138532;-72
2024/01/05 10:16:38;;;;;;;3.60;2.00;;;;;;;-0.09;68.46;99486.16;102827;1259;106883;-73
2024/01/05 10:19:14;;;;;;;2.70;1.80;;;;;;;-0.01;68.38;99489.56;102882;1264;97781;-73
2024/01/05 10:21:43;;;;;;;3.70;2.20;;;;;;;0.07;68.20;99499.98;103383;1259;107886;-76
2024/01/05 10:24:21;;;;;;;3.20;2.00;;;;;;;0.11;67.62;99500.30;102943;1259;97792;-75
2024/01/05 10:27:04;;;;;;;4.30;2.30;;;;;;;0.11;67.25;99501.15;102871;1259;137309;-74
2024/01/05 10:29:31;;;;;;;3.30;2.00;;;;;;;0.10;67.16;99500.65;103458;1259;1002410;-75
2024/01/05 10:32:11;;;;;;;4.10;2.40;;;;;;;0.15;67.37;99507.98;103073;1259;139610;-74
2024/01/05 10:34:38;;;;;;;5.60;3.60;;;;;;;0.20;67.26;99511.59;102812;1263;107079;-74
2024/01/05 10:37:09;;;;;;;9.10;5.40;;;;;;;0.23;66.96;99511.40;101591;1259;1003372;-77
2024/01/05 10:39:36;;;;;;;4.10;2.60;;;;;;;0.24;66.67;99518.23;102835;1262;137506;-76
2024/01/05 10:44:58;;;;;;;3.00;2.30;;;;;;;0.32;65.92;99522.48;100740;1285;636357;-76
2024/01/05 10:47:28;;;;;;;4.60;2.50;;;;;;;0.31;65.98;99522.14;102669;1266;94487;-76
2024/01/05 10:49:56;;;;;;;7.00;5.00;;;;;;;0.28;66.01;99519.23;101688;1266;1003313;-76
2024/01/05 10:52:26;;;;;;;5.70;2.80;;;;;;;0.32;65.87;99518.89;102577;1266;94421;-74
2024/01/05 10:54:53;;;;;;;6.10;2.50;;;;;;;0.31;65.63;99521.12;101841;1267;1003818;-73
2024/01/05 10:57:23;;;;;;;3.30;2.40;;;;;;;0.32;65.71;99520.77;101708;1266;1002546;-73
2024/01/05 10:59:52;;;;;;;4.00;3.00;;;;;;;0.35;65.82;99526.58;102025;1263;1003291;-69
2024/01/05 11:02:25;;;;;;;8.20;3.90;;;;;;;0.40;65.81;99521.28;102613;1265;136686;-68
2024/01/05 11:04:59;;;;;;;5.50;3.50;;;;;;;0.45;65.69;99519.38;101712;1262;1016226;-69
2024/01/05 11:07:30;;;;;;;4.60;3.00;;;;;;;0.52;65.78;99514.73;103388;1255;136830;-69
2024/01/05 11:10:11;;;;;;;5.80;2.80;;;;;;;0.55;65.38;99516.45;103560;1253;108573;-70
2024/01/05 11:12:55;;;;;;;4.60;2.80;;;;;;;0.59;65.37;99512.84;104010;1253;95119;-68
2024/01/05 11:15:40;;;;;;;3.00;2.30;;;;;;;0.61;64.49;99509.58;103371;1253;136606;-68
2024/01/05 11:18:28;;;;;;;4.30;2.30;;;;;;;0.66;64.20;99511.27;103654;1253;95568;-70
2024/01/05 11:21:11;;;;;;;3.00;2.20;;;;;;;0.68;64.00;99507.32;102629;1252;1003180;-69
2024/01/05 11:23:42;;;;;;;4.30;2.00;;;;;;;0.73;63.80;99507.31;102823;1252;1015574;-70
2024/01/05 11:26:26;;;;;;;4.70;2.60;;;;;;;0.76;63.54;99506.09;103378;1253;139020;-69